Kenton, OK (73946)

12:11 AM CDT on May 30, 2015 (GMT -0500)
Clayton Municipal | | Change Station
CLOSE
Current Station
Airport
Location: Clayton,
Elevation: 4970 ft
Nearby Weather Stations

Elev 4970 ft 36.45 °N, 103.15 °W | Updated 16 minutes ago

Rain
Rain
52 °F
Feels Like 52 °F
N
12
Wind Variable Wind from NNE

Today
High -- | Low -- °F
--% Chance of Precip.
Yesterday
High -- | Low -- °F
Precip. -- in
6:34 AM 9:03 PM
Waxing Gibbous, 88% visible
Pressure 30.16 in
Visibility 10.0 miles
Clouds Clear
Dew Point 50 °F
Humidity 93%
Rainfall 0.17 in
Snow Depth Not available.
UV 0 out of 12
Pollen 6.70 out of 12
Air Quality Not available.
Flu Activity Sporadic
METAR KCAO 300455Z AUTO 03010KT 10SM CLR 11/10 A3029 RMK AO2 LTG DSNT E SLP213 T01110100

More Conditions Fewer Conditions

Pressure 30.16 in
Visibility 10.0 miles
Clouds Clear
Dew Point 50 °F
Humidity 93%
Rainfall 0.17 in
Snow Depth Not available.
UV 0 out of 12
Pollen 6.70 out of 12
Air Quality Not available.
Flu Activity Sporadic
METAR KCAO 300455Z AUTO 03010KT 10SM CLR 11/10 A3029 RMK AO2 LTG DSNT E SLP213 T01110100

More Conditions Fewer Conditions

10-Day Weather Forecast

Almanac

Astronomy

May. 30, 2015 Rise Set
Actual Time
Civil Twilight
Nautical Twilight
Astronomical Twilight
Moon
Length of Visible Light
Length of Day
Tomorrow will be .
, % of the Moon is Illuminated

Today's Extremes

State Highs State Lows

Community

WunderPhotos

Upload Photos

1,825,459 photos uploaded!

WunderBlogs® & News

Nearby

Air Quality

  Air Quality AQ Index Pollutant
Not available.

Snow Depth

Station Depth Elevation

Earthquake Activity

City Distance Mag. Time & Date
Minimum magnitude displayed is 2.5.

Coastal Water Temperatures

Place Temperature

Stations

Nearby Weather Stations

Station Location Temp. Windchill Dew Point Humidity Wind Precip. Elev Updated Type